Startpagina
METAR-TAF:

METAR-TAF

Vliegvelden :

Djibouti, Djibouti

Luchthaven Ambouli Internationaal

breedte: 11-33N, lengte: 043-10E, hoogte: 49 m

Actueel weer

Dit bericht is 3 uur en het 12 minuten geleden gemaakt, om 07:00 UTC
Wind 6 kt uit het noordnoordwesten
Temperatuur 35°C
Vochtigheid 63%
Druk 1008 hPa
Zicht: 8000 m
Heiigheid

METAR: HDAM 210700Z 34006KT 8000 HZ 35/27 Q1008

Tijdstip: 13:12 (10:12 UTC)

Verwachting

Dit bericht is 11 uur en het 12 minuten geleden gemaakt, om 23:00 UTC
Verwachting geldig van 21 om 00 UTC tot 21 om 24 UTC
Wind 12 kt uit het westen
Zicht: 8000 m
Weinig wolken op 2300 ft
Weinig wolken op 3000 ft, Cumulonimbus.
Heiigheid
Wijzigt naar
van 21 om 06 UTC tot 21 om 12 UTC
Wind 12 kt uit het westen
Zicht: 6000 m
Heiigheid
Wijzigt naar
van 21 om 12 UTC tot 21 om 15 UTC
Wind 10 kt uit het oosten
Weinig wolken op 3000 ft, Cumulonimbus.

TAF: HDAM 202300Z 2100/2124 28012KT 8000 HZ FEW023 FEW030CB BECMG 2106/2112 28012KT 6000 HZ NSC BECMG 2112/2115 08010KT FEW030CB

Waarnemingen en weersverwachtingen van meer dan 4000 vliegvelden (METAR en TAF).

De beschikbare stations zijn de gele en rode punten op de kaart.

Ga met uw muis naar het station om de naam te zien.

Klik dan om waarnemingen en weersverwachtingen te zien.

kaart wijzigen: klik op de groene knoppen met een zwart kruis om in te zoomen, op de groene knop met een streepje om uit te zoomen of op de groene pijlen voor aangrenzende kaarten.


METAR-TAF: